Time;durP1;ratioP1;P1;durP2;ratioP2;P2;SDS_P1;SDS_P2;PMS_P1;PMS_P2;Temp;Humidity;BMP_temperature;BMP_pressure;BME280_temperature;BME280_humidity;BME280_pressure;Samples;Min_cycle;Max_cycle;Signal;HPM_P1;HPM_P2
2024/02/28 00:02:09;;;;;;;2.20;1.77;;;;;;;13.61;60.86;99831.72;4490352;31;34384;-85
2024/02/28 00:04:40;;;;;;;3.33;3.03;;;;;;;13.52;61.44;99838.38;4473699;31;33567;-84
2024/02/28 00:07:08;;;;;;;2.50;2.28;;;;;;;13.66;61.04;99842.06;4476116;31;34161;-84
2024/02/28 00:09:35;;;;;;;2.10;1.90;;;;;;;13.69;61.16;99842.75;4480617;31;33352;-84
2024/02/28 00:12:03;;;;;;;2.17;2.03;;;;;;;13.68;61.02;99837.56;4488975;31;33764;-83
2024/02/28 00:14:31;;;;;;;1.15;1.15;;;;;;;13.82;60.69;99849.09;4477257;31;32980;-83
2024/02/28 00:16:58;;;;;;;2.87;2.55;;;;;;;13.95;59.91;99841.28;4475410;31;33941;-83
2024/02/28 00:19:26;;;;;;;3.95;1.62;;;;;;;13.72;60.90;99841.72;4477360;31;33765;-83
2024/02/28 00:21:54;;;;;;;1.98;1.15;;;;;;;13.57;61.46;99841.63;4464133;31;33250;-83
2024/02/28 00:24:21;;;;;;;1.77;1.00;;;;;;;13.83;60.58;99842.00;4492748;31;34001;-83
2024/02/28 00:26:49;;;;;;;2.08;1.98;;;;;;;14.08;59.74;99839.63;4467260;31;32738;-83
2024/02/28 00:29:16;;;;;;;3.58;1.37;;;;;;;13.96;59.78;99839.50;4492052;31;33728;-83
2024/02/28 00:31:44;;;;;;;2.22;2.12;;;;;;;13.53;61.25;99842.78;4489377;31;33308;-83
2024/02/28 00:34:12;;;;;;;7.43;2.70;;;;;;;13.51;61.49;99841.97;4492859;31;34679;-83
2024/02/28 00:36:39;;;;;;;2.95;2.75;;;;;;;13.45;61.83;99837.03;4472843;31;32362;-83
2024/02/28 00:39:22;;;;;;;1.62;1.50;;;;;;;13.55;61.72;99832.06;4492925;31;33401;-83
2024/02/28 00:41:50;;;;;;;1.27;1.25;;;;;;;13.61;61.59;99833.50;4492629;31;33426;-82
2024/02/28 00:44:17;;;;;;;2.80;2.00;;;;;;;13.60;61.64;99834.47;4490246;31;34908;-83
2024/02/28 00:46:45;;;;;;;3.70;3.15;;;;;;;13.57;61.74;99836.31;4492203;31;33471;-82
2024/02/28 00:49:13;;;;;;;4.28;3.87;;;;;;;13.54;61.99;99836.50;4477361;31;34209;-82
2024/02/28 00:51:40;;;;;;;1.62;1.35;;;;;;;13.57;61.86;99836.31;4491913;31;33201;-82
2024/02/28 00:54:08;;;;;;;3.85;2.35;;;;;;;13.54;61.75;99847.13;4478571;31;33875;-82
2024/02/28 00:56:36;;;;;;;2.25;2.05;;;;;;;13.51;61.96;99846.44;4492079;31;33898;-82
2024/02/28 00:59:03;;;;;;;2.25;2.03;;;;;;;13.69;61.12;99839.25;4470433;31;31901;-82
2024/02/28 01:01:31;;;;;;;4.45;3.30;;;;;;;13.54;61.84;99841.81;4463997;31;33871;-82
2024/02/28 01:03:59;;;;;;;3.10;2.85;;;;;;;13.65;61.25;99845.66;4491694;31;34325;-82
2024/02/28 01:06:26;;;;;;;4.32;3.75;;;;;;;13.56;61.75;99852.34;4493744;31;31907;-82
2024/02/28 01:08:54;;;;;;;2.30;1.98;;;;;;;13.65;61.53;99853.63;4492255;31;33080;-82
2024/02/28 01:11:22;;;;;;;12.27;1.45;;;;;;;13.56;61.63;99836.41;4475481;31;34524;-82
2024/02/28 01:13:49;;;;;;;4.78;3.72;;;;;;;13.50;62.01;99840.28;4489390;31;33906;-83
2024/02/28 01:16:17;;;;;;;1.30;1.23;;;;;;;13.54;61.58;99841.81;4489133;31;33862;-83
2024/02/28 01:18:44;;;;;;;2.17;1.98;;;;;;;13.41;62.59;99843.44;4479597;31;32699;-83
2024/02/28 01:21:12;;;;;;;0.73;0.73;;;;;;;13.39;62.30;99842.66;4490321;31;33676;-82
2024/02/28 01:23:39;;;;;;;1.10;1.10;;;;;;;13.55;61.81;99838.22;4489517;31;34012;-82
2024/02/28 01:26:07;;;;;;;2.28;2.12;;;;;;;13.55;61.80;99830.25;4475833;31;33719;-83
2024/02/28 01:28:34;;;;;;;7.93;4.10;;;;;;;13.49;62.14;99835.91;4489285;31;34597;-83
2024/02/28 01:31:02;;;;;;;1.67;1.58;;;;;;;13.52;62.03;99843.69;4489124;31;34038;-83
2024/02/28 01:33:30;;;;;;;3.40;1.05;;;;;;;13.53;62.15;99844.53;4477701;31;32574;-83
2024/02/28 01:35:58;;;;;;;2.17;2.08;;;;;;;13.53;62.09;99847.19;4478592;31;33554;-83
2024/02/28 01:38:26;;;;;;;8.10;3.65;;;;;;;13.55;61.86;99842.66;4466394;31;33869;-83
2024/02/28 01:40:54;;;;;;;3.80;1.65;;;;;;;13.57;61.80;99841.63;4476086;31;32398;-83
2024/02/28 01:43:22;;;;;;;2.15;1.95;;;;;;;13.55;61.77;99843.53;4491137;31;34764;-83
2024/02/28 01:45:50;;;;;;;7.50;3.83;;;;;;;13.47;61.71;99844.88;4489529;31;33651;-82
2024/02/28 01:48:18;;;;;;;6.05;1.85;;;;;;;13.67;60.64;99843.78;4468748;31;32478;-82
2024/02/28 01:50:46;;;;;;;11.85;2.67;;;;;;;13.44;61.64;99853.03;4478174;31;32521;-82
2024/02/28 01:53:14;;;;;;;2.37;2.25;;;;;;;13.21;62.40;99865.69;4491258;31;33708;-82
2024/02/28 01:55:42;;;;;;;1.30;1.20;;;;;;;13.27;62.25;99851.28;4492258;31;33884;-82
2024/02/28 01:58:10;;;;;;;2.87;1.90;;;;;;;13.62;60.96;99849.34;4489080;31;32006;-82
2024/02/28 02:00:38;;;;;;;1.23;1.12;;;;;;;13.29;61.80;99847.63;4490606;31;33946;-82
2024/02/28 02:03:06;;;;;;;4.65;1.60;;;;;;;13.22;62.22;99855.97;4492448;31;35651;-81
2024/02/28 02:05:33;;;;;;;4.05;3.67;;;;;;;13.13;62.60;99859.94;4494799;31;33922;-81
2024/02/28 02:08:01;;;;;;;2.47;1.80;;;;;;;13.21;62.21;99860.38;4491680;31;33721;-81
2024/02/28 02:10:29;;;;;;;3.35;2.58;;;;;;;13.33;62.11;99858.88;4492229;31;34588;-81
2024/02/28 02:13:04;;;;;;;2.72;2.58;;;;;;;13.40;61.95;99857.63;4486082;31;33968;-81
2024/02/28 02:15:32;;;;;;;10.95;3.20;;;;;;;13.43;61.51;99865.41;4477261;31;34638;-81
2024/02/28 02:18:00;;;;;;;6.82;3.33;;;;;;;13.51;61.67;99868.50;4490131;31;33436;-81
2024/02/28 02:20:30;;;;;;;1.33;1.23;;;;;;;13.63;60.99;99871.44;4473081;31;33465;-81
2024/02/28 02:22:58;;;;;;;17.15;3.67;;;;;;;13.65;60.46;99870.41;4475851;31;34837;-81
2024/02/28 02:25:25;;;;;;;2.22;2.08;;;;;;;13.66;60.64;99871.25;4492334;31;32610;-81
2024/02/28 02:27:53;;;;;;;3.20;2.37;;;;;;;13.63;60.46;99871.44;4488845;31;33047;-81
2024/02/28 02:30:21;;;;;;;1.02;1.02;;;;;;;13.86;59.42;99872.78;4488486;31;33272;-81
2024/02/28 02:32:48;;;;;;;3.17;2.40;;;;;;;13.96;58.59;99869.56;4489524;31;34321;-81
2024/02/28 02:35:16;;;;;;;1.85;1.75;;;;;;;13.85;58.52;99874.59;4489566;31;33290;-81
2024/02/28 02:37:48;;;;;;;5.65;3.78;;;;;;;13.74;58.69;99879.66;4493041;31;33938;-82
2024/02/28 02:40:15;;;;;;;3.12;1.55;;;;;;;13.99;57.80;99869.38;4479184;31;32280;-82
2024/02/28 02:42:43;;;;;;;1.83;1.27;;;;;;;14.09;57.56;99873.22;4490752;31;34032;-82
2024/02/28 02:45:11;;;;;;;1.92;1.12;;;;;;;13.90;57.79;99869.03;4495137;31;32230;-82
2024/02/28 02:47:39;;;;;;;2.15;1.98;;;;;;;14.06;57.33;99876.06;4490981;31;33355;-82
2024/02/28 02:50:07;;;;;;;0.98;0.65;;;;;;;13.94;57.45;99876.75;4492277;31;34254;-82
2024/02/28 02:52:35;;;;;;;1.27;1.17;;;;;;;13.89;57.54;99873.50;4471478;31;32735;-82
2024/02/28 02:55:03;;;;;;;1.70;1.60;;;;;;;13.79;58.00;99874.94;4491831;31;33260;-81
2024/02/28 02:57:31;;;;;;;5.72;2.42;;;;;;;13.75;58.07;99881.38;4493149;31;33007;-82
2024/02/28 02:59:59;;;;;;;2.25;2.05;;;;;;;13.90;57.68;99879.66;4480569;31;34503;-82
2024/02/28 03:02:27;;;;;;;2.50;2.35;;;;;;;13.86;57.70;99876.31;4478027;31;33531;-82
2024/02/28 03:04:54;;;;;;;4.65;1.33;;;;;;;13.75;57.78;99878.72;4493678;31;34146;-82
2024/02/28 03:07:22;;;;;;;34.38;3.08;;;;;;;13.73;57.95;99877.94;4478920;31;31983;-82
2024/02/28 03:09:49;;;;;;;2.20;1.92;;;;;;;13.63;58.24;99884.72;4490320;31;33594;-82
2024/02/28 03:12:17;;;;;;;2.78;2.47;;;;;;;13.78;57.80;99889.16;4489889;31;32643;-82
2024/02/28 03:14:45;;;;;;;0.90;0.90;;;;;;;13.76;58.00;99893.69;4478143;31;32244;-82
2024/02/28 03:17:12;;;;;;;2.20;2.10;;;;;;;13.70;58.18;99894.03;4493089;31;31976;-82
2024/02/28 03:19:41;;;;;;;1.05;1.00;;;;;;;13.73;57.94;99896.53;4477724;31;32379;-82
2024/02/28 03:22:08;;;;;;;5.95;2.17;;;;;;;13.64;58.33;99905.00;4488560;31;33546;-82
2024/02/28 03:24:36;;;;;;;2.60;2.25;;;;;;;13.79;57.80;99901.50;4478475;31;33263;-83
2024/02/28 03:27:04;;;;;;;1.20;1.20;;;;;;;13.88;57.71;99903.63;4491850;31;32684;-83
2024/02/28 03:29:31;;;;;;;4.18;3.12;;;;;;;13.82;56.90;99903.97;4488518;31;32412;-83
2024/02/28 03:31:59;;;;;;;1.95;1.85;;;;;;;13.74;56.72;99901.75;4492821;31;33972;-83
2024/02/28 03:34:26;;;;;;;2.58;2.25;;;;;;;13.86;56.26;99909.94;4479153;31;33400;-83
2024/02/28 03:36:54;;;;;;;2.00;1.25;;;;;;;13.79;56.32;99904.13;4492073;31;33735;-82
2024/02/28 03:39:22;;;;;;;1.80;1.70;;;;;;;13.77;56.42;99906.03;4473830;31;33776;-82
2024/02/28 03:41:50;;;;;;;1.90;1.80;;;;;;;13.75;56.72;99910.56;4491883;31;34804;-83
2024/02/28 03:44:17;;;;;;;2.90;1.60;;;;;;;13.74;56.76;99906.19;4492530;31;33828;-83
2024/02/28 03:46:45;;;;;;;1.37;0.85;;;;;;;13.63;56.63;99903.28;4492210;31;34184;-82
2024/02/28 03:49:13;;;;;;;0.75;0.75;;;;;;;13.93;55.52;99906.03;4490841;31;33146;-83
2024/02/28 03:51:41;;;;;;;1.83;1.73;;;;;;;13.74;56.24;99906.19;4488916;31;33707;-82
2024/02/28 03:54:09;;;;;;;2.42;2.33;;;;;;;13.78;56.11;99907.75;4489077;31;34315;-83
2024/02/28 03:56:37;;;;;;;2.17;1.98;;;;;;;13.76;56.40;99909.59;4491754;31;34403;-83
2024/02/28 03:59:04;;;;;;;2.33;0.60;;;;;;;13.91;55.89;99914.09;4476128;31;32855;-82
2024/02/28 04:01:32;;;;;;;2.00;1.52;;;;;;;13.69;56.57;99913.56;4490872;31;34774;-83
2024/02/28 04:04:00;;;;;;;5.43;3.55;;;;;;;13.81;56.51;99919.06;4492456;31;33676;-84
2024/02/28 04:06:27;;;;;;;9.50;2.30;;;;;;;13.58;57.26;99915.00;4478406;31;33687;-84
2024/02/28 04:08:55;;;;;;;1.12;1.02;;;;;;;13.77;56.78;99920.16;4479476;31;33267;-85
2024/02/28 04:11:23;;;;;;;4.82;2.47;;;;;;;13.85;56.45;99914.41;4479118;31;32096;-83
2024/02/28 04:13:51;;;;;;;4.28;2.25;;;;;;;13.67;57.11;99918.91;4490059;31;33651;-83
2024/02/28 04:16:18;;;;;;;2.83;1.42;;;;;;;13.69;57.01;99916.22;4466211;31;32970;-82
2024/02/28 04:18:46;;;;;;;1.52;1.45;;;;;;;13.64;57.22;99923.56;4476606;31;33047;-82
2024/02/28 04:21:14;;;;;;;4.53;1.85;;;;;;;13.69;56.85;99922.38;4477812;31;33369;-82
2024/02/28 04:23:41;;;;;;;3.45;2.83;;;;;;;13.77;56.27;99921.97;4489805;31;32224;-82
2024/02/28 04:26:09;;;;;;;2.03;1.48;;;;;;;13.86;55.48;99926.72;4466222;31;33157;-82
2024/02/28 04:28:37;;;;;;;2.28;1.80;;;;;;;13.35;56.38;99925.97;4475091;31;33196;-83
2024/02/28 04:31:04;;;;;;;1.27;1.17;;;;;;;13.57;55.98;99920.38;4492815;31;33691;-82
2024/02/28 04:33:32;;;;;;;3.45;2.80;;;;;;;13.97;55.05;99923.50;4491094;31;33543;-82
2024/02/28 04:36:00;;;;;;;6.70;3.33;;;;;;;13.83;55.66;99921.62;4471353;31;31729;-82
2024/02/28 04:38:27;;;;;;;0.80;0.80;;;;;;;14.08;55.02;99913.97;4477031;31;33748;-82
2024/02/28 04:40:55;;;;;;;2.28;1.95;;;;;;;13.85;55.73;99922.38;4491073;31;33950;-82
2024/02/28 04:43:22;;;;;;;2.50;2.20;;;;;;;13.56;57.07;99930.13;4478449;31;33265;-82
2024/02/28 04:45:50;;;;;;;1.50;1.40;;;;;;;13.42;57.61;99937.97;4491843;31;33297;-82
2024/02/28 04:48:18;;;;;;;5.15;2.72;;;;;;;13.68;56.86;99938.38;4480622;31;34209;-82
2024/02/28 04:50:46;;;;;;;11.20;2.15;;;;;;;13.45;57.66;99937.81;4489079;31;33923;-82
2024/02/28 04:53:13;;;;;;;2.28;2.03;;;;;;;13.43;57.93;99929.06;4478816;31;33896;-83
2024/02/28 04:55:42;;;;;;;1.35;1.30;;;;;;;13.69;56.97;99921.50;4491519;31;33623;-82
2024/02/28 04:58:09;;;;;;;7.32;2.30;;;;;;;13.75;56.89;99926.47;4465646;31;32358;-81
2024/02/28 05:00:36;;;;;;;2.72;2.40;;;;;;;13.60;57.41;99943.25;4492066;31;33648;-81
2024/02/28 05:03:04;;;;;;;3.33;1.50;;;;;;;13.48;57.88;99936.78;4489062;31;34559;-81
2024/02/28 05:05:32;;;;;;;2.53;1.75;;;;;;;13.40;58.31;99939.84;4488613;31;32202;-84
2024/02/28 05:07:59;;;;;;;1.83;1.67;;;;;;;13.21;58.83;99939.94;4478481;31;32464;-83
2024/02/28 05:10:27;;;;;;;1.33;1.08;;;;;;;13.30;58.71;99950.09;4478626;31;32139;-83
2024/02/28 05:12:55;;;;;;;1.75;1.65;;;;;;;13.51;57.88;99958.69;4488825;31;33487;-83
2024/02/28 05:15:23;;;;;;;4.68;2.35;;;;;;;13.40;58.45;99963.72;4477912;31;33417;-83
2024/02/28 05:17:52;;;;;;;1.55;1.45;;;;;;;13.45;58.26;99963.47;4490538;31;34621;-83
2024/02/28 05:20:19;;;;;;;1.17;1.08;;;;;;;13.46;58.20;99966.03;4477464;31;32450;-83
2024/02/28 05:22:47;;;;;;;2.22;1.52;;;;;;;13.74;57.07;99967.22;4477780;31;33058;-82
2024/02/28 05:25:15;;;;;;;2.47;2.15;;;;;;;13.62;57.13;99974.03;4489298;31;33954;-83
2024/02/28 05:27:42;;;;;;;0.62;0.62;;;;;;;13.67;57.01;99968.47;4488526;31;33725;-83
2024/02/28 05:30:10;;;;;;;2.20;1.95;;;;;;;13.76;56.64;99966.19;4492758;31;34661;-83
2024/02/28 05:32:38;;;;;;;4.75;1.02;;;;;;;13.75;56.32;99966.28;4475904;31;32288;-82
2024/02/28 05:35:06;;;;;;;3.20;2.12;;;;;;;13.94;55.45;99966.12;4490679;31;32536;-82
2024/02/28 05:37:34;;;;;;;15.32;1.77;;;;;;;14.09;54.30;99968.78;4492507;31;32482;-82
2024/02/28 05:40:02;;;;;;;0.95;0.93;;;;;;;13.72;55.09;99974.41;4486911;31;33848;-82
2024/02/28 05:42:31;;;;;;;1.50;1.37;;;;;;;13.69;55.00;99972.78;4489808;31;34676;-83
2024/02/28 05:44:58;;;;;;;2.00;1.90;;;;;;;13.82;54.22;99978.28;4488922;31;33355;-84
2024/02/28 05:47:27;;;;;;;2.20;1.00;;;;;;;13.64;54.92;99984.59;4476037;31;32703;-83
2024/02/28 05:49:56;;;;;;;1.08;0.98;;;;;;;13.71;54.49;99983.31;4491381;31;33923;-83
2024/02/28 05:52:27;;;;;;;1.50;1.40;;;;;;;13.65;54.90;99981.84;4491891;31;33888;-83
2024/02/28 05:54:55;;;;;;;4.30;1.60;;;;;;;13.69;54.96;99977.25;4478723;31;33442;-84
2024/02/28 05:57:23;;;;;;;28.90;1.85;;;;;;;13.64;54.80;99979.28;4464635;31;33387;-84
2024/02/28 05:59:51;;;;;;;0.52;0.52;;;;;;;13.65;54.93;99983.66;4488717;31;33622;-84
2024/02/28 06:02:19;;;;;;;1.20;1.15;;;;;;;13.45;55.37;99980.25;4475558;31;33451;-83
2024/02/28 06:04:46;;;;;;;3.08;2.50;;;;;;;13.73;54.70;99976.13;4472576;31;31045;-82
2024/02/28 06:07:14;;;;;;;3.37;2.50;;;;;;;13.54;54.78;99989.53;4472286;31;32543;-82
2024/02/28 06:09:42;;;;;;;1.25;1.12;;;;;;;13.77;54.17;99996.28;4488000;31;33741;-83
2024/02/28 06:12:10;;;;;;;2.47;1.35;;;;;;;13.20;56.05;99991.25;4488087;31;33961;-83
2024/02/28 06:14:37;;;;;;;3.15;2.33;;;;;;;13.46;55.03;99991.72;4478796;31;31650;-83
2024/02/28 06:17:05;;;;;;;1.80;1.20;;;;;;;13.32;55.22;99997.75;4484230;31;33905;-83
2024/02/28 06:19:33;;;;;;;2.78;2.58;;;;;;;12.94;56.92;100004.97;4466015;31;34142;-83
2024/02/28 06:22:00;;;;;;;3.00;2.72;;;;;;;13.23;55.97;100006.16;4489680;31;33661;-83
2024/02/28 06:24:28;;;;;;;6.32;1.42;;;;;;;13.22;55.64;100004.47;4474876;31;32295;-83
2024/02/28 06:26:56;;;;;;;2.15;1.83;;;;;;;13.14;55.83;99999.50;4486766;31;34581;-83
2024/02/28 06:29:23;;;;;;;0.90;0.90;;;;;;;13.27;55.58;99994.47;4477935;31;33613;-82
2024/02/28 06:31:51;;;;;;;1.65;0.88;;;;;;;13.42;55.10;99996.31;4476165;31;33181;-83
2024/02/28 06:34:20;;;;;;;3.72;3.37;;;;;;;13.32;55.38;100006.56;4487160;31;33050;-82
2024/02/28 06:36:48;;;;;;;3.62;2.05;;;;;;;13.30;55.20;100002.28;4474119;31;32556;-82
2024/02/28 06:39:16;;;;;;;6.00;2.67;;;;;;;13.16;55.81;100005.59;4488897;31;33680;-82
2024/02/28 06:41:43;;;;;;;2.62;1.80;;;;;;;13.13;55.88;100013.69;4467970;31;34199;-82
2024/02/28 06:44:11;;;;;;;3.45;1.70;;;;;;;13.43;55.06;100007.78;4477972;31;31727;-82
2024/02/28 06:46:39;;;;;;;2.45;2.25;;;;;;;13.44;55.02;100012.19;4490375;31;32322;-82
2024/02/28 06:49:07;;;;;;;1.60;1.50;;;;;;;13.22;55.31;100009.75;4490493;31;33629;-83
2024/02/28 06:51:34;;;;;;;1.17;1.17;;;;;;;13.32;55.54;100019.81;4475635;31;33575;-83
2024/02/28 06:54:03;;;;;;;1.33;1.27;;;;;;;13.24;55.66;100010.53;4486944;31;33202;-82
2024/02/28 06:56:31;;;;;;;4.72;2.12;;;;;;;13.23;55.99;100016.78;4487653;31;33357;-81
2024/02/28 06:58:58;;;;;;;1.65;1.55;;;;;;;13.12;56.53;100019.94;4488676;31;34811;-81
2024/02/28 07:01:26;;;;;;;1.62;1.52;;;;;;;13.17;56.62;100027.66;4477482;31;32274;-82
2024/02/28 07:03:54;;;;;;;1.75;1.45;;;;;;;13.02;57.58;100043.41;4473606;31;32345;-81
2024/02/28 07:06:21;;;;;;;2.05;1.40;;;;;;;13.12;57.36;100041.16;4491328;31;34034;-81
2024/02/28 07:08:49;;;;;;;1.42;1.33;;;;;;;13.64;55.95;100035.00;4491055;31;32195;-82
2024/02/28 07:11:17;;;;;;;3.72;2.45;;;;;;;13.55;56.23;100042.50;4478994;31;32750;-81
2024/02/28 07:13:44;;;;;;;1.98;1.62;;;;;;;13.79;55.74;100042.16;4490673;31;33317;-81
2024/02/28 07:16:11;;;;;;;1.58;1.48;;;;;;;13.67;55.87;100042.78;4483479;31;33796;-81
2024/02/28 07:18:39;;;;;;;7.72;1.90;;;;;;;13.34;56.59;100043.63;4490739;31;33649;-81
2024/02/28 07:21:07;;;;;;;1.87;1.12;;;;;;;13.71;55.50;100041.69;4492548;31;34235;-81
2024/02/28 07:23:35;;;;;;;4.82;2.67;;;;;;;13.24;57.38;100039.69;4478044;31;32777;-81
2024/02/28 07:26:03;;;;;;;1.40;1.35;;;;;;;13.82;55.74;100039.34;4478488;31;32452;-82
2024/02/28 07:28:49;;;;;;;1.45;1.40;;;;;;;13.42;56.18;100043.22;4491361;31;33311;-81
2024/02/28 07:31:18;;;;;;;2.85;1.45;;;;;;;13.56;56.44;100046.00;4480973;31;33979;-82
2024/02/28 07:33:46;;;;;;;4.57;1.75;;;;;;;13.86;55.86;100047.97;4480132;31;32518;-81
2024/02/28 07:36:13;;;;;;;1.42;1.33;;;;;;;13.90;55.44;100049.53;4492895;31;33856;-81
2024/02/28 07:38:42;;;;;;;1.83;1.73;;;;;;;13.71;55.53;100054.94;4492538;31;33803;-81
2024/02/28 07:41:09;;;;;;;1.80;1.52;;;;;;;13.87;54.91;100061.19;4479147;32;33800;-81
2024/02/28 07:43:37;;;;;;;1.08;0.93;;;;;;;13.88;54.81;100054.94;4479428;31;33363;-81
2024/02/28 07:46:10;;;;;;;1.23;1.12;;;;;;;13.53;56.21;100062.97;4478548;31;32362;-81
2024/02/28 07:48:38;;;;;;;3.42;1.77;;;;;;;13.37;56.20;100062.00;4494784;31;33259;-81
2024/02/28 07:51:07;;;;;;;0.98;0.93;;;;;;;13.36;56.47;100065.59;4493116;31;33916;-81
2024/02/28 07:53:35;;;;;;;1.87;1.10;;;;;;;13.64;55.23;100069.50;4491531;31;33042;-81
2024/02/28 07:56:03;;;;;;;3.37;1.60;;;;;;;13.68;55.16;100063.09;4484345;31;33364;-81
2024/02/28 07:58:31;;;;;;;2.30;2.10;;;;;;;13.71;55.46;100068.22;4490895;31;33951;-81
2024/02/28 08:00:59;;;;;;;3.55;2.37;;;;;;;14.30;55.01;100066.84;4491287;31;33941;-81
2024/02/28 08:03:27;;;;;;;1.87;1.75;;;;;;;13.88;56.07;100068.22;4476644;31;33256;-81
2024/02/28 08:05:54;;;;;;;3.42;3.12;;;;;;;13.94;55.82;100075.84;4477634;31;32639;-82
2024/02/28 08:08:22;;;;;;;4.20;1.62;;;;;;;14.00;55.69;100072.00;4493589;31;34187;-81
2024/02/28 08:10:51;;;;;;;3.30;2.53;;;;;;;13.83;55.85;100080.87;4479724;31;34527;-82
2024/02/28 08:13:19;;;;;;;4.43;2.78;;;;;;;14.27;54.89;100082.94;4488053;31;32990;-81
2024/02/28 08:15:46;;;;;;;2.83;1.12;;;;;;;14.07;55.50;100081.34;4490369;31;33879;-81
2024/02/28 08:18:14;;;;;;;2.35;2.20;;;;;;;14.02;55.33;100081.59;4452542;31;34677;-81
2024/02/28 08:20:42;;;;;;;1.55;1.45;;;;;;;13.90;55.81;100082.25;4480735;31;32822;-81
2024/02/28 08:23:09;;;;;;;3.37;2.25;;;;;;;14.38;54.71;100080.53;4478316;31;35104;-84
2024/02/28 08:25:37;;;;;;;1.40;1.33;;;;;;;14.08;54.89;100086.56;4470654;31;32398;-82
2024/02/28 08:28:06;;;;;;;1.85;1.65;;;;;;;14.02;54.97;100086.91;4476057;31;32462;-81
2024/02/28 08:30:34;;;;;;;1.37;1.37;;;;;;;14.08;55.21;100089.22;4487474;31;34197;-81
2024/02/28 08:33:02;;;;;;;2.37;2.15;;;;;;;14.21;54.82;100097.41;4463707;31;33211;-82
2024/02/28 08:35:32;;;;;;;3.17;2.60;;;;;;;14.30;54.63;100093.41;4493250;31;34524;-82
2024/02/28 08:38:05;;;;;;;4.57;3.00;;;;;;;13.83;55.65;100086.19;4492849;31;33911;-82
2024/02/28 08:40:33;;;;;;;1.80;1.17;;;;;;;14.54;54.57;100092.09;4467191;31;32433;-82
2024/02/28 08:43:00;;;;;;;4.62;2.53;;;;;;;14.43;54.38;100085.59;4493886;31;33340;-82
2024/02/28 08:45:28;;;;;;;5.78;2.95;;;;;;;13.84;55.66;100095.84;4479154;31;30777;-82
2024/02/28 08:47:57;;;;;;;1.95;1.83;;;;;;;14.08;55.43;100091.87;4490627;31;34788;-82
2024/02/28 08:50:25;;;;;;;1.40;1.27;;;;;;;14.66;53.10;100081.69;4492338;31;33206;-82
2024/02/28 08:52:52;;;;;;;0.88;0.85;;;;;;;14.38;54.45;100085.84;4490558;31;32301;-82
2024/02/28 08:55:21;;;;;;;2.15;1.95;;;;;;;14.51;53.74;100086.06;4491311;31;32221;-82
2024/02/28 08:57:49;;;;;;;4.70;1.48;;;;;;;14.72;53.46;100092.00;4492100;31;33640;-82
2024/02/28 09:00:18;;;;;;;2.40;2.22;;;;;;;14.23;54.56;100092.84;4489807;31;34331;-82
2024/02/28 09:02:46;;;;;;;9.25;2.47;;;;;;;14.79;52.92;100093.38;4491964;31;34185;-82
2024/02/28 09:05:13;;;;;;;0.80;0.80;;;;;;;14.98;52.38;100087.84;4490161;31;33936;-82
2024/02/28 09:07:41;;;;;;;2.47;2.30;;;;;;;14.44;53.51;100104.13;4479981;31;34013;-82
2024/02/28 09:10:10;;;;;;;1.52;1.42;;;;;;;14.62;53.06;100101.41;4487992;31;34653;-82
2024/02/28 09:12:38;;;;;;;2.42;2.28;;;;;;;14.66;53.40;100092.34;4464134;31;31938;-82
2024/02/28 09:15:07;;;;;;;4.37;4.00;;;;;;;15.26;51.12;100087.13;4477873;31;33756;-82
2024/02/28 09:17:34;;;;;;;2.92;2.58;;;;;;;15.55;51.29;100085.41;4490563;31;35189;-82
2024/02/28 09:20:02;;;;;;;6.50;2.55;;;;;;;15.65;51.24;100093.72;4462608;31;33575;-82
2024/02/28 09:22:30;;;;;;;5.80;2.25;;;;;;;15.45;51.07;100082.44;4471542;31;31949;-82
2024/02/28 09:25:00;;;;;;;5.68;2.95;;;;;;;15.87;50.07;100091.47;4477084;31;32917;-82
2024/02/28 09:27:30;;;;;;;5.90;2.62;;;;;;;15.92;50.13;100088.53;4468813;31;33118;-82
2024/02/28 09:29:58;;;;;;;3.33;1.08;;;;;;;15.83;49.53;100087.28;4476849;31;34640;-82
2024/02/28 09:32:26;;;;;;;4.32;2.28;;;;;;;15.83;50.71;100093.47;4494051;31;33283;-82
2024/02/28 09:34:53;;;;;;;6.43;2.17;;;;;;;15.35;50.71;100091.91;4476987;31;33947;-82
2024/02/28 09:37:22;;;;;;;1.10;1.08;;;;;;;16.26;49.25;100087.31;4492396;31;33989;-82
2024/02/28 09:39:49;;;;;;;4.35;2.78;;;;;;;16.34;48.44;100090.34;4476886;31;32541;-82
2024/02/28 09:42:17;;;;;;;1.45;1.40;;;;;;;16.01;49.72;100091.50;4476520;31;33725;-82
2024/02/28 09:44:46;;;;;;;4.45;2.17;;;;;;;16.06;49.49;100094.72;4464608;31;33384;-82
2024/02/28 09:47:14;;;;;;;4.12;1.58;;;;;;;15.96;49.48;100085.59;4475666;31;33008;-82
2024/02/28 09:49:45;;;;;;;4.35;1.85;;;;;;;16.06;49.76;100089.41;4488996;31;33026;-82
2024/02/28 09:52:13;;;;;;;2.05;1.05;;;;;;;16.12;49.12;100090.81;4488060;31;32830;-82
2024/02/28 09:54:43;;;;;;;4.12;3.72;;;;;;;16.49;48.34;100089.38;4475073;31;34621;-82
2024/02/28 09:57:11;;;;;;;1.55;1.45;;;;;;;16.36;48.39;100091.09;4488838;31;34075;-81
2024/02/28 09:59:40;;;;;;;5.90;2.53;;;;;;;16.15;49.08;100095.13;4480637;31;33649;-83
2024/02/28 10:02:21;;;;;;;4.15;1.98;;;;;;;15.86;49.62;100103.09;4482013;31;32687;-86
2024/02/28 10:04:49;;;;;;;2.20;1.62;;;;;;;15.87;49.66;100104.81;4491479;31;33895;-84
2024/02/28 10:07:17;;;;;;;3.80;2.95;;;;;;;16.05;48.87;100101.00;4477999;31;33402;-83
2024/02/28 10:09:44;;;;;;;2.78;2.05;;;;;;;16.17;48.88;100098.53;4475568;31;34242;-83
2024/02/28 10:12:12;;;;;;;8.95;2.17;;;;;;;16.73;47.91;100094.13;4465013;31;32536;-83
2024/02/28 10:14:40;;;;;;;3.53;2.83;;;;;;;16.69;48.73;100098.75;4466345;31;33649;-83
2024/02/28 10:17:08;;;;;;;2.45;2.05;;;;;;;17.10;48.04;100097.94;4475233;31;33279;-83
2024/02/28 10:19:36;;;;;;;1.30;1.20;;;;;;;17.09;47.07;100101.53;4475607;31;33119;-83
2024/02/28 10:22:03;;;;;;;0.82;0.77;;;;;;;17.08;47.52;100122.00;4465723;31;33686;-84
2024/02/28 10:24:33;;;;;;;4.62;2.28;;;;;;;17.55;46.63;100111.81;4464962;31;33464;-83
2024/02/28 10:27:01;;;;;;;1.58;1.48;;;;;;;17.24;46.47;100111.22;4477187;31;33470;-83
2024/02/28 10:29:32;;;;;;;1.45;1.35;;;;;;;17.60;45.93;100102.53;4474347;31;32557;-83
2024/02/28 10:32:00;;;;;;;3.62;2.30;;;;;;;17.25;45.80;100112.06;4489020;31;34211;-83
2024/02/28 10:34:28;;;;;;;6.55;2.85;;;;;;;17.03;46.55;100117.94;4487200;31;32032;-83
2024/02/28 10:36:56;;;;;;;1.58;1.48;;;;;;;17.55;45.92;100111.81;4462635;31;34147;-83
2024/02/28 10:39:24;;;;;;;3.12;2.83;;;;;;;17.98;45.01;100109.75;4474100;31;33559;-83
2024/02/28 10:41:53;;;;;;;8.13;1.98;;;;;;;17.66;46.42;100109.28;4486369;31;32892;-83
2024/02/28 10:44:21;;;;;;;9.35;4.43;;;;;;;17.79;44.67;100103.97;4471935;31;32658;-83
2024/02/28 10:46:50;;;;;;;6.62;2.85;;;;;;;17.94;44.53;100100.22;4474446;31;33173;-83
2024/02/28 10:49:18;;;;;;;3.03;2.35;;;;;;;18.09;44.87;100101.00;4488588;31;33989;-83
2024/02/28 10:51:46;;;;;;;3.72;2.28;;;;;;;18.45;44.05;100100.19;4488335;31;33290;-83
2024/02/28 10:54:15;;;;;;;1.45;1.42;;;;;;;18.29;43.85;100097.78;4486413;31;33530;-83
2024/02/28 10:56:43;;;;;;;4.70;3.42;;;;;;;18.67;42.74;100103.06;4487910;31;34223;-83
2024/02/28 10:59:14;;;;;;;3.42;2.85;;;;;;;17.97;43.77;100099.19;4478524;31;33955;-83
2024/02/28 11:01:43;;;;;;;4.80;1.87;;;;;;;17.80;44.79;100092.31;4479253;31;31538;-83
2024/02/28 11:04:13;;;;;;;2.90;2.35;;;;;;;18.37;44.59;100097.22;4486138;31;32719;-83
2024/02/28 11:06:52;;;;;;;8.13;1.92;;;;;;;18.06;43.73;100096.72;4474047;31;33859;-83
2024/02/28 11:09:25;;;;;;;7.68;2.60;;;;;;;18.31;43.98;100097.66;4485446;31;36504;-83
2024/02/28 11:11:54;;;;;;;21.87;3.37;;;;;;;18.14;44.46;100097.03;4488068;31;33785;-83
2024/02/28 11:14:25;;;;;;;29.37;1.98;;;;;;;18.06;44.60;100094.03;4464749;31;34396;-83
2024/02/28 11:17:03;;;;;;;4.72;2.42;;;;;;;18.40;44.26;100091.66;4475410;31;32524;-83
2024/02/28 11:19:32;;;;;;;2.10;1.98;;;;;;;18.52;43.39;100095.28;4476119;31;34479;-83
2024/02/28 11:22:03;;;;;;;4.00;2.83;;;;;;;18.32;44.40;100094.87;4475305;31;33859;-83
2024/02/28 11:24:33;;;;;;;22.52;4.47;;;;;;;18.25;44.14;100096.28;4488772;31;34642;-83
2024/02/28 11:27:05;;;;;;;1.70;1.42;;;;;;;18.39;43.83;100092.63;4477730;31;33550;-83
2024/02/28 11:29:33;;;;;;;2.15;1.87;;;;;;;18.22;44.11;100092.97;4474330;31;33432;-83
2024/02/28 11:32:01;;;;;;;5.62;2.25;;;;;;;18.43;43.84;100081.59;4489357;31;31400;-83
2024/02/28 11:34:28;;;;;;;1.80;1.05;;;;;;;18.38;43.90;100086.44;4467945;31;32206;-83